createdAt,value
2018-03-29T00:01:59.084Z,4.30
2018-03-29T00:04:26.633Z,4.30
2018-03-29T00:06:54.899Z,4.40
2018-03-29T00:09:23.209Z,4.40
2018-03-29T00:11:50.774Z,4.40
2018-03-29T00:14:18.299Z,4.40
2018-03-29T00:16:45.817Z,4.40
2018-03-29T00:19:13.433Z,4.40
2018-03-29T00:21:40.976Z,4.40
2018-03-29T00:24:08.514Z,4.30
2018-03-29T00:26:36.843Z,4.30
2018-03-29T00:29:04.384Z,4.30
2018-03-29T00:31:31.870Z,4.40
2018-03-29T00:33:59.467Z,4.40
2018-03-29T00:36:27.756Z,4.40
2018-03-29T00:38:55.289Z,4.40
2018-03-29T00:41:23.914Z,4.40
2018-03-29T00:43:51.439Z,4.30
2018-03-29T00:46:19.718Z,4.40
2018-03-29T00:48:48.011Z,4.40
2018-03-29T00:51:15.547Z,4.40
2018-03-29T00:53:44.649Z,4.40
2018-03-29T00:56:12.141Z,4.30
2018-03-29T00:58:39.658Z,4.40
2018-03-29T01:01:07.960Z,4.40
2018-03-29T01:03:35.442Z,4.30
2018-03-29T01:06:02.984Z,4.40
2018-03-29T01:08:33.319Z,4.40
2018-03-29T01:11:01.585Z,4.30
2018-03-29T01:13:29.098Z,4.30
2018-03-29T01:15:57.386Z,4.30
2018-03-29T01:18:25.510Z,4.20
2018-03-29T01:20:53.040Z,4.30
2018-03-29T01:23:20.547Z,4.30
2018-03-29T01:25:48.045Z,4.40
2018-03-29T01:28:15.571Z,4.30
2018-03-29T01:30:43.963Z,4.30
2018-03-29T01:33:12.222Z,4.30
2018-03-29T01:35:40.516Z,4.40
2018-03-29T01:38:08.795Z,4.40
2018-03-29T01:40:36.329Z,4.40
2018-03-29T01:43:04.642Z,4.40
2018-03-29T01:45:32.216Z,4.40
2018-03-29T01:47:59.738Z,4.40
2018-03-29T01:50:28.038Z,4.40
2018-03-29T01:52:55.599Z,4.40
2018-03-29T01:55:23.122Z,4.40
2018-03-29T01:57:51.389Z,4.40
2018-03-29T02:00:19.710Z,4.40
2018-03-29T02:02:47.237Z,4.40
2018-03-29T02:05:16.236Z,4.40
2018-03-29T02:07:43.778Z,4.40
2018-03-29T02:10:12.078Z,4.40
2018-03-29T02:12:39.563Z,4.40
2018-03-29T02:15:07.107Z,4.50
2018-03-29T02:17:34.603Z,4.50
2018-03-29T02:20:02.875Z,4.50
2018-03-29T02:22:31.151Z,4.50
2018-03-29T02:24:58.678Z,4.50
2018-03-29T02:27:26.182Z,4.50
2018-03-29T02:29:54.477Z,4.50
2018-03-29T02:32:21.996Z,4.50
2018-03-29T02:34:49.521Z,4.40
2018-03-29T02:37:17.034Z,4.50
2018-03-29T02:39:45.350Z,4.50
2018-03-29T02:42:13.686Z,4.50
2018-03-29T02:44:41.950Z,4.50
2018-03-29T02:47:09.611Z,4.50
2018-03-29T02:49:37.133Z,4.50
2018-03-29T02:52:04.657Z,4.50
2018-03-29T02:54:32.163Z,4.50
2018-03-29T02:56:59.709Z,4.50
2018-03-29T02:59:27.250Z,4.50
2018-03-29T03:01:54.783Z,4.50
2018-03-29T03:04:23.150Z,4.50
2018-03-29T03:06:51.420Z,4.40
2018-03-29T03:09:19.739Z,4.40
2018-03-29T03:11:47.237Z,4.40
2018-03-29T03:14:14.815Z,4.40
2018-03-29T03:16:43.086Z,4.40
2018-03-29T03:19:11.358Z,4.40
2018-03-29T03:21:39.655Z,4.40
2018-03-29T03:24:07.193Z,4.40
2018-03-29T03:26:34.687Z,4.40
2018-03-29T03:29:02.253Z,4.30
2018-03-29T03:31:29.779Z,4.30
2018-03-29T03:33:58.081Z,4.20
2018-03-29T03:36:25.624Z,4.20
2018-03-29T03:38:53.144Z,4.30
2018-03-29T03:41:21.583Z,4.20
2018-03-29T03:43:49.186Z,4.20
2018-03-29T03:46:16.798Z,4.20
2018-03-29T03:48:44.324Z,4.10
2018-03-29T03:51:13.259Z,4.10
2018-03-29T03:53:40.761Z,4.10
2018-03-29T03:56:09.042Z,4.00
2018-03-29T03:58:37.329Z,4.10
2018-03-29T04:01:05.644Z,4.00
2018-03-29T04:03:33.183Z,4.00
2018-03-29T04:06:00.687Z,4.10
2018-03-29T04:08:29.488Z,4.10
2018-03-29T04:10:56.983Z,4.10
2018-03-29T04:13:24.635Z,4.20
2018-03-29T04:15:52.172Z,4.20
2018-03-29T04:18:20.473Z,4.20
2018-03-29T04:20:48.044Z,4.20
2018-03-29T04:23:15.560Z,4.40
2018-03-29T04:25:43.852Z,4.30
2018-03-29T04:28:12.134Z,4.30
2018-03-29T04:30:39.663Z,4.30
2018-03-29T04:33:07.979Z,4.30
2018-03-29T04:35:35.526Z,4.30
2018-03-29T04:38:03.080Z,4.30
2018-03-29T04:40:31.380Z,4.50
2018-03-29T04:42:58.895Z,4.50
2018-03-29T04:45:27.483Z,4.40
2018-03-29T04:47:56.399Z,4.30
2018-03-29T04:50:24.661Z,4.20
2018-03-29T04:52:52.182Z,4.20
2018-03-29T04:55:19.677Z,4.20
2018-03-29T04:57:47.265Z,4.10
2018-03-29T05:00:14.789Z,4.10
2018-03-29T05:02:42.338Z,4.00
2018-03-29T05:05:10.610Z,3.90
2018-03-29T05:07:38.979Z,3.90
2018-03-29T05:10:06.450Z,3.90
2018-03-29T05:12:34.732Z,3.80
2018-03-29T05:15:02.988Z,3.80
2018-03-29T05:17:31.267Z,3.80
2018-03-29T05:19:59.598Z,3.80
2018-03-29T05:22:27.140Z,3.80
2018-03-29T05:24:54.694Z,3.80
2018-03-29T05:27:26.761Z,3.80
2018-03-29T05:29:54.382Z,3.70
2018-03-29T05:32:22.775Z,3.70
2018-03-29T05:34:51.059Z,3.80
2018-03-29T05:37:18.576Z,3.80
2018-03-29T05:39:46.094Z,4.10
2018-03-29T05:42:13.598Z,4.20
2018-03-29T05:44:41.101Z,4.30
2018-03-29T05:47:08.628Z,4.30
2018-03-29T05:49:36.946Z,4.50
2018-03-29T05:52:04.484Z,4.50
2018-03-29T05:54:31.985Z,4.40
2018-03-29T05:56:59.518Z,4.40
2018-03-29T05:59:27.018Z,4.30
2018-03-29T06:01:55.102Z,4.40
2018-03-29T06:04:23.382Z,4.50
2018-03-29T06:06:51.708Z,4.50
2018-03-29T06:09:19.217Z,4.50
2018-03-29T06:11:47.484Z,4.50
2018-03-29T06:14:15.775Z,4.50
2018-03-29T06:16:47.255Z,4.50
2018-03-29T06:19:14.750Z,4.60
2018-03-29T06:21:42.263Z,4.60
2018-03-29T06:24:09.790Z,4.70
2018-03-29T06:26:38.223Z,4.80
2018-03-29T06:29:05.741Z,4.80
2018-03-29T06:31:33.314Z,4.90
2018-03-29T06:34:00.824Z,4.90
2018-03-29T06:36:29.113Z,5.10
2018-03-29T06:38:57.406Z,5.10
2018-03-29T06:41:24.935Z,5.10
2018-03-29T06:43:52.438Z,5.20
2018-03-29T06:46:20.107Z,5.30
2018-03-29T06:48:47.660Z,5.20
2018-03-29T06:51:15.570Z,5.30
2018-03-29T06:53:43.051Z,5.30
2018-03-29T06:56:11.340Z,5.40
2018-03-29T06:58:38.895Z,5.40
2018-03-29T07:01:06.475Z,5.50
2018-03-29T07:03:34.008Z,5.60
2018-03-29T07:06:01.527Z,5.60
2018-03-29T07:08:29.051Z,5.60
2018-03-29T07:10:56.594Z,5.70
2018-03-29T07:13:24.105Z,5.70
2018-03-29T07:15:51.627Z,5.70
2018-03-29T07:18:19.218Z,5.80
2018-03-29T07:20:46.702Z,5.90
2018-03-29T07:23:14.234Z,6.00
2018-03-29T07:25:41.737Z,6.00
2018-03-29T07:28:09.246Z,6.00
2018-03-29T07:30:36.811Z,6.10
2018-03-29T07:33:04.626Z,6.10
2018-03-29T07:35:32.177Z,6.10
2018-03-29T07:37:59.739Z,6.10
2018-03-29T07:40:27.309Z,6.10
2018-03-29T07:42:54.863Z,6.10
2018-03-29T07:45:22.421Z,6.10
2018-03-29T07:47:49.906Z,6.10
2018-03-29T07:50:17.720Z,6.20
2018-03-29T07:52:46.907Z,6.20
2018-03-29T07:55:14.700Z,6.20
2018-03-29T07:57:42.376Z,6.30
2018-03-29T08:00:09.881Z,6.40
2018-03-29T08:02:37.409Z,6.50
2018-03-29T08:05:05.005Z,6.50
2018-03-29T08:07:33.416Z,6.60
2018-03-29T08:10:00.891Z,6.50
2018-03-29T08:12:28.456Z,6.70
2018-03-29T08:14:55.989Z,6.70
2018-03-29T08:17:23.508Z,6.70
2018-03-29T08:19:51.801Z,6.90
2018-03-29T08:22:20.090Z,7.00
2018-03-29T08:24:47.684Z,7.00
2018-03-29T08:27:15.208Z,7.00
2018-03-29T08:29:42.747Z,7.00
2018-03-29T08:32:10.251Z,7.10
2018-03-29T08:34:37.762Z,7.10
2018-03-29T08:37:05.308Z,7.00
2018-03-29T08:39:33.661Z,7.40
2018-03-29T08:42:01.169Z,7.30
2018-03-29T08:44:28.738Z,7.60
2018-03-29T08:46:56.242Z,7.50
2018-03-29T08:49:23.860Z,7.60
2018-03-29T08:51:51.372Z,7.70
2018-03-29T08:54:24.399Z,8.10
2018-03-29T08:56:52.000Z,8.00
2018-03-29T08:59:19.977Z,8.50
2018-03-29T09:01:47.659Z,8.70
2018-03-29T09:04:15.929Z,9.30
2018-03-29T09:06:44.226Z,9.20
2018-03-29T09:09:11.742Z,9.20
2018-03-29T09:11:39.321Z,8.90
2018-03-29T09:14:07.609Z,8.90
2018-03-29T09:16:35.196Z,8.90
2018-03-29T09:19:02.749Z,8.90
2018-03-29T09:21:30.226Z,8.60
2018-03-29T09:23:57.746Z,8.40
2018-03-29T09:26:25.289Z,8.20
2018-03-29T09:28:53.564Z,8.20
2018-03-29T09:31:21.833Z,8.50
2018-03-29T09:33:50.145Z,8.70
2018-03-29T09:36:17.685Z,8.60
2018-03-29T09:38:45.961Z,8.80
2018-03-29T09:41:13.642Z,8.80
2018-03-29T09:43:41.150Z,9.00
2018-03-29T09:46:08.696Z,9.10
2018-03-29T09:48:36.320Z,9.50
2018-03-29T09:51:03.884Z,9.70
2018-03-29T09:53:31.410Z,9.80
2018-03-29T09:55:59.936Z,10.10
2018-03-29T09:58:27.514Z,10.10
2018-03-29T10:01:09.925Z,10.00
2018-03-29T10:03:39.341Z,9.90
2018-03-29T10:06:13.337Z,9.80
2018-03-29T10:08:40.910Z,9.80
2018-03-29T10:11:09.271Z,9.70
2018-03-29T10:13:36.834Z,9.60
2018-03-29T10:16:04.440Z,9.80
2018-03-29T10:18:31.993Z,9.90
2018-03-29T10:20:59.521Z,10.00
2018-03-29T10:23:28.109Z,9.80
2018-03-29T10:25:56.421Z,9.70
2018-03-29T10:28:23.966Z,9.70
2018-03-29T10:30:52.554Z,9.40
2018-03-29T10:33:20.064Z,9.30
2018-03-29T10:35:48.475Z,9.00
2018-03-29T10:38:15.929Z,9.00
2018-03-29T10:40:44.987Z,8.80
2018-03-29T10:43:12.494Z,8.80
2018-03-29T10:45:40.126Z,8.60
2018-03-29T10:48:08.506Z,8.10
2018-03-29T10:50:36.797Z,8.00
2018-03-29T10:53:04.384Z,7.90
2018-03-29T10:55:31.935Z,7.90
2018-03-29T10:57:59.467Z,7.90
2018-03-29T11:00:27.750Z,7.90
2018-03-29T11:02:55.282Z,7.90
2018-03-29T11:05:23.567Z,8.00
2018-03-29T11:07:51.869Z,8.10
2018-03-29T11:10:19.385Z,8.10
2018-03-29T11:12:46.888Z,8.00
2018-03-29T11:15:14.565Z,7.60
2018-03-29T11:17:42.254Z,7.40
2018-03-29T11:20:10.236Z,7.50
2018-03-29T11:22:37.746Z,7.90
2018-03-29T11:25:05.358Z,8.30
2018-03-29T11:27:32.883Z,8.40
2018-03-29T11:30:00.453Z,8.10
2018-03-29T11:32:27.985Z,8.00
2018-03-29T11:34:55.545Z,8.00
2018-03-29T11:37:24.006Z,8.10
2018-03-29T11:39:51.534Z,9.10
2018-03-29T11:42:19.082Z,9.50
2018-03-29T11:44:47.360Z,9.50
2018-03-29T11:47:15.616Z,9.10
2018-03-29T11:49:43.174Z,9.10
2018-03-29T11:52:10.749Z,8.80
2018-03-29T11:54:39.346Z,9.50
2018-03-29T11:57:07.645Z,9.50
2018-03-29T11:59:35.126Z,9.50
2018-03-29T12:02:03.017Z,9.60
2018-03-29T12:04:30.506Z,9.90
2018-03-29T12:06:58.057Z,10.00
2018-03-29T12:09:26.349Z,10.20
2018-03-29T12:11:53.872Z,10.20
2018-03-29T12:14:22.134Z,10.40
2018-03-29T12:16:49.761Z,10.40
2018-03-29T12:19:17.403Z,10.50
2018-03-29T12:21:45.309Z,10.60
2018-03-29T12:24:12.827Z,10.60
2018-03-29T12:26:40.340Z,10.50
2018-03-29T12:29:07.910Z,10.30
2018-03-29T12:31:35.489Z,10.20
2018-03-29T12:34:03.070Z,10.10
2018-03-29T12:36:30.608Z,10.20
2018-03-29T12:38:58.180Z,10.30
2018-03-29T12:41:25.700Z,10.20
2018-03-29T12:43:54.001Z,10.60
2018-03-29T12:46:21.545Z,10.60
2018-03-29T12:48:49.800Z,10.70
2018-03-29T12:51:17.341Z,10.70
2018-03-29T12:53:44.857Z,10.70
2018-03-29T12:56:22.168Z,11.00
2018-03-29T12:58:49.789Z,11.30
2018-03-29T13:01:18.086Z,12.00
2018-03-29T13:03:45.646Z,11.90
2018-03-29T13:06:13.205Z,12.00
2018-03-29T13:08:40.731Z,11.00
2018-03-29T13:11:09.022Z,10.20
2018-03-29T13:13:36.596Z,10.20
2018-03-29T13:16:04.157Z,10.40
2018-03-29T13:18:31.642Z,10.10
2018-03-29T13:20:59.232Z,9.80
2018-03-29T13:23:27.562Z,9.40
2018-03-29T13:25:55.110Z,9.30
2018-03-29T13:28:22.618Z,9.50
2018-03-29T13:30:50.201Z,9.50
2018-03-29T13:33:17.783Z,9.40
2018-03-29T13:35:45.354Z,9.20
2018-03-29T13:38:12.888Z,9.10
2018-03-29T13:40:40.381Z,8.80
2018-03-29T13:43:07.933Z,8.80
2018-03-29T13:45:37.013Z,8.90
2018-03-29T13:48:04.532Z,9.20
2018-03-29T13:50:32.812Z,9.70
2018-03-29T13:53:00.306Z,9.70
2018-03-29T13:55:27.847Z,10.60
2018-03-29T13:57:55.349Z,10.20
2018-03-29T14:00:22.926Z,10.40
2018-03-29T14:02:50.426Z,10.30
2018-03-29T14:05:17.967Z,9.90
2018-03-29T14:07:45.523Z,10.00
2018-03-29T14:10:13.905Z,10.20
2018-03-29T14:12:42.216Z,10.30
2018-03-29T14:15:09.747Z,10.30
2018-03-29T14:17:37.291Z,10.40
2018-03-29T14:20:04.812Z,10.20
2018-03-29T14:22:32.296Z,10.20
2018-03-29T14:25:00.585Z,10.10
2018-03-29T14:27:29.286Z,10.10
2018-03-29T14:29:56.848Z,10.10
2018-03-29T14:32:25.195Z,10.30
2018-03-29T14:34:52.897Z,10.30
2018-03-29T14:37:20.499Z,10.70
2018-03-29T14:39:48.958Z,10.60
2018-03-29T14:42:16.782Z,10.70
2018-03-29T14:44:44.302Z,10.80
2018-03-29T14:47:11.844Z,10.80
2018-03-29T14:49:39.340Z,10.60
2018-03-29T14:52:06.846Z,10.50
2018-03-29T14:54:34.386Z,10.50
2018-03-29T14:57:02.296Z,10.50
2018-03-29T14:59:30.204Z,10.60
2018-03-29T15:02:04.831Z,10.70
2018-03-29T15:04:32.456Z,10.80
2018-03-29T15:06:59.951Z,10.90
2018-03-29T15:09:30.743Z,10.60
2018-03-29T15:11:58.290Z,10.40
2018-03-29T15:14:25.862Z,10.10
2018-03-29T15:16:54.223Z,9.80
2018-03-29T15:19:21.740Z,9.80
2018-03-29T15:21:49.355Z,9.90
2018-03-29T15:24:16.874Z,10.10
2018-03-29T15:26:44.387Z,10.30
2018-03-29T15:29:16.922Z,10.80
2018-03-29T15:31:44.570Z,11.00
2018-03-29T15:34:12.078Z,11.00
2018-03-29T15:36:40.342Z,10.90
2018-03-29T15:39:08.627Z,10.90
2018-03-29T15:41:37.003Z,10.80
2018-03-29T15:44:05.378Z,10.80
2018-03-29T15:46:33.655Z,10.70
2018-03-29T15:49:01.219Z,10.60
2018-03-29T15:51:29.551Z,10.60
2018-03-29T15:53:58.491Z,10.60
2018-03-29T15:56:26.782Z,10.50
2018-03-29T15:58:57.649Z,10.50
2018-03-29T16:01:25.151Z,10.40
2018-03-29T16:03:53.438Z,10.40
2018-03-29T16:06:20.995Z,10.40
2018-03-29T16:09:14.549Z,10.40
2018-03-29T16:11:46.610Z,10.40
2018-03-29T16:14:35.340Z,10.50
2018-03-29T16:17:03.131Z,10.50
2018-03-29T16:19:31.429Z,10.30
2018-03-29T16:21:58.952Z,10.30
2018-03-29T16:24:27.271Z,10.50
2018-03-29T16:26:54.778Z,10.40
2018-03-29T16:29:23.144Z,10.40
2018-03-29T16:31:50.641Z,10.30
2018-03-29T16:34:18.943Z,10.20
2018-03-29T16:36:46.436Z,10.10
2018-03-29T16:39:14.095Z,10.20
2018-03-29T16:41:41.557Z,10.10
2018-03-29T16:44:09.105Z,10.10
2018-03-29T16:46:36.657Z,10.20
2018-03-29T16:49:04.142Z,10.10
2018-03-29T16:51:33.595Z,10.00
2018-03-29T16:54:01.111Z,10.00
2018-03-29T16:56:28.608Z,9.90
2018-03-29T16:58:56.235Z,9.80
2018-03-29T17:01:23.771Z,9.70
2018-03-29T17:03:51.290Z,9.70
2018-03-29T17:06:18.820Z,9.70
2018-03-29T17:08:47.271Z,9.60
2018-03-29T17:11:15.583Z,9.40
2018-03-29T17:13:43.456Z,9.40
2018-03-29T17:16:12.060Z,9.60
2018-03-29T17:18:39.694Z,9.60
2018-03-29T17:21:07.255Z,9.50
2018-03-29T17:23:34.797Z,9.40
2018-03-29T17:26:02.339Z,9.40
2018-03-29T17:28:29.842Z,9.50
2018-03-29T17:30:57.382Z,9.40
2018-03-29T17:33:24.868Z,9.50
2018-03-29T17:35:52.497Z,9.50
2018-03-29T17:38:20.723Z,9.40
2018-03-29T17:40:49.031Z,9.20
2018-03-29T17:43:16.593Z,9.10
2018-03-29T17:45:44.227Z,9.00
2018-03-29T17:48:12.634Z,9.10
2018-03-29T17:50:40.136Z,9.10
2018-03-29T17:53:07.654Z,9.00
2018-03-29T17:55:35.170Z,8.90
2018-03-29T17:58:03.117Z,8.70
2018-03-29T18:00:30.751Z,8.50
2018-03-29T18:02:58.317Z,8.40
2018-03-29T18:05:32.588Z,8.30
2018-03-29T18:08:00.191Z,8.20
2018-03-29T18:10:27.699Z,8.10
2018-03-29T18:12:55.347Z,8.10
2018-03-29T18:15:22.931Z,8.00
2018-03-29T18:17:51.224Z,7.90
2018-03-29T18:20:18.740Z,7.80
2018-03-29T18:22:46.267Z,7.90
2018-03-29T18:25:13.866Z,7.90
2018-03-29T18:27:42.159Z,7.80
2018-03-29T18:30:10.511Z,8.00
2018-03-29T18:32:38.088Z,8.00
2018-03-29T18:35:06.388Z,8.00
2018-03-29T18:37:33.960Z,7.90
2018-03-29T18:40:01.486Z,7.80
2018-03-29T18:42:29.881Z,7.60
2018-03-29T18:44:57.414Z,7.60
2018-03-29T18:47:26.561Z,7.50
2018-03-29T18:49:54.161Z,7.50
2018-03-29T18:52:22.509Z,7.20
2018-03-29T18:54:50.017Z,7.20
2018-03-29T18:57:17.616Z,7.10
2018-03-29T18:59:45.182Z,7.10
2018-03-29T19:02:12.827Z,7.00
2018-03-29T19:04:40.360Z,7.00
2018-03-29T19:07:07.852Z,6.90
2018-03-29T19:09:35.457Z,6.90
2018-03-29T19:12:04.203Z,6.90
2018-03-29T19:17:28.297Z,6.80
2018-03-29T19:19:55.814Z,7.00
2018-03-29T19:22:23.401Z,6.80
2018-03-29T19:24:51.099Z,6.70
2018-03-29T19:27:18.815Z,6.80
2018-03-29T19:29:46.599Z,6.70
2018-03-29T19:32:14.163Z,6.60
2018-03-29T19:34:41.690Z,6.50
2018-03-29T19:37:09.241Z,6.50
2018-03-29T19:39:36.775Z,6.50
2018-03-29T19:42:05.335Z,6.40
2018-03-29T19:44:33.678Z,6.40
2018-03-29T19:47:01.179Z,6.40
2018-03-29T19:49:28.754Z,6.40
2018-03-29T19:51:57.009Z,6.50
2018-03-29T19:54:24.569Z,6.40
2018-03-29T19:56:52.823Z,6.50
2018-03-29T19:59:20.382Z,6.40
2018-03-29T20:01:47.907Z,6.40
2018-03-29T20:04:15.414Z,6.30
2018-03-29T20:06:42.937Z,6.10
2018-03-29T20:09:10.455Z,6.10
2018-03-29T20:11:39.309Z,6.30
2018-03-29T20:14:06.807Z,6.30
2018-03-29T20:16:34.481Z,6.20
2018-03-29T20:19:02.023Z,6.10
2018-03-29T20:21:29.581Z,6.10
2018-03-29T20:23:57.106Z,6.10
2018-03-29T20:26:24.666Z,6.10
2018-03-29T20:28:52.224Z,6.00
2018-03-29T20:31:20.478Z,5.90
2018-03-29T20:33:48.028Z,5.90
2018-03-29T20:36:15.542Z,5.80
2018-03-29T20:38:43.057Z,5.90
2018-03-29T20:41:10.787Z,5.70
2018-03-29T20:43:38.387Z,5.60
2018-03-29T20:46:05.912Z,5.70
2018-03-29T20:48:33.666Z,5.80
2018-03-29T20:51:01.190Z,5.80
2018-03-29T20:53:29.501Z,5.90
2018-03-29T20:55:57.237Z,5.80
2018-03-29T20:58:25.541Z,5.90
2018-03-29T21:00:53.668Z,5.80
2018-03-29T21:03:21.994Z,5.70
2018-03-29T21:05:49.828Z,5.70
2018-03-29T21:08:17.338Z,5.60
2018-03-29T21:10:44.893Z,5.60
2018-03-29T21:13:12.412Z,5.60
2018-03-29T21:15:39.939Z,5.60
2018-03-29T21:18:08.237Z,5.40
2018-03-29T21:20:35.749Z,5.40
2018-03-29T21:23:03.305Z,5.20
2018-03-29T21:25:30.805Z,6.50
2018-03-29T21:27:58.448Z,6.10
2018-03-29T21:30:26.743Z,5.60
2018-03-29T21:32:55.061Z,5.40
2018-03-29T21:35:22.622Z,5.40
2018-03-29T21:37:50.296Z,5.30
2018-03-29T21:40:18.776Z,5.20
2018-03-29T21:42:46.841Z,5.20
2018-03-29T21:45:14.369Z,5.30
2018-03-29T21:47:41.925Z,5.30
2018-03-29T21:50:09.447Z,5.20
2018-03-29T21:52:37.744Z,5.30
2018-03-29T21:55:05.276Z,5.30
2018-03-29T21:57:32.778Z,5.40
2018-03-29T22:00:00.334Z,5.40
2018-03-29T22:02:27.932Z,5.30
2018-03-29T22:04:55.394Z,5.20
2018-03-29T22:07:22.947Z,5.20
2018-03-29T22:09:50.475Z,5.30
2018-03-29T22:12:18.001Z,5.30
2018-03-29T22:14:45.551Z,5.40
2018-03-29T22:17:13.064Z,5.40
2018-03-29T22:19:40.680Z,5.40
2018-03-29T22:22:08.268Z,5.40
2018-03-29T22:24:35.790Z,5.40
2018-03-29T22:27:04.082Z,5.20
2018-03-29T22:29:31.620Z,5.20
2018-03-29T22:31:59.911Z,5.20
2018-03-29T22:34:27.487Z,5.30
2018-03-29T22:36:55.011Z,5.20
2018-03-29T22:39:23.291Z,5.10
2018-03-29T22:41:50.856Z,5.10
2018-03-29T22:44:18.410Z,5.20
2018-03-29T22:46:46.705Z,5.30
2018-03-29T22:49:14.243Z,5.20
2018-03-29T22:51:41.777Z,5.20
2018-03-29T22:54:09.450Z,5.20
2018-03-29T22:56:37.838Z,5.10
2018-03-29T22:59:06.229Z,5.00
2018-03-29T23:01:33.761Z,4.90
2018-03-29T23:04:01.249Z,5.00
2018-03-29T23:06:28.858Z,4.90
2018-03-29T23:08:56.349Z,4.90
2018-03-29T23:11:23.907Z,4.80
2018-03-29T23:13:51.463Z,4.80
2018-03-29T23:16:19.780Z,4.80
2018-03-29T23:18:47.334Z,4.80
2018-03-29T23:21:15.220Z,4.90
2018-03-29T23:23:42.848Z,4.90
2018-03-29T23:26:10.472Z,4.90
2018-03-29T23:28:38.755Z,4.90
2018-03-29T23:31:07.130Z,5.00
2018-03-29T23:33:35.386Z,5.00
2018-03-29T23:36:02.890Z,5.00
2018-03-29T23:38:30.444Z,5.00
2018-03-29T23:40:57.948Z,5.00
2018-03-29T23:43:25.450Z,5.00
2018-03-29T23:45:53.290Z,5.00
2018-03-29T23:48:21.579Z,5.10
2018-03-29T23:50:49.852Z,5.10
2018-03-29T23:53:18.146Z,5.20
2018-03-29T23:55:45.692Z,5.10
2018-03-29T23:58:17.142Z,5.20
